Southside Place, Texas
Current Conditions -  °F | °C
As of 10:55 AM on Saturday 22 Nov 2014 (Local Time) from KMCJ Reporting Station
Overcast Overcast  
Wind Chill: 64°   Ceiling: 800
Heat Index: 64°   Visibility: NA
Dew Point: 61°   Wind: 15mph
Humidity: 88%   Direction: 100°E
Pressure: 30.02"   Gusts: 21mph
Location:  29.7181°N, 95.4241°W
Report Text: KMCJ 221655Z AUTO 10013G18KT 010V020 OVC008 18/16 A3002 RMK AO1
Loading
Personal Weather Stations






























Interactive Weather Map New forecast layout! Learn more

10-Day Weather Forecast

Advertisements
Track Severe Weather on mobile